createdAt,value
2023-05-01T00:00:48.111Z,956.2654
2023-05-01T00:01:49.917Z,956.2208
2023-05-01T00:02:51.883Z,956.1623
2023-05-01T00:03:53.758Z,956.1561
2023-05-01T00:04:55.493Z,956.1708
2023-05-01T00:05:57.304Z,956.1908
2023-05-01T00:06:59.107Z,956.2192
2023-05-01T00:08:00.932Z,956.2039
2023-05-01T00:09:02.759Z,956.1392
2023-05-01T00:10:04.620Z,956.1154
2023-05-01T00:11:06.458Z,956.1292
2023-05-01T00:12:08.288Z,956.1508
2023-05-01T00:13:10.125Z,956.1685
2023-05-01T00:14:11.963Z,956.1600
2023-05-01T00:15:13.784Z,956.1000
2023-05-01T00:16:15.674Z,956.0508
2023-05-01T00:17:17.485Z,956.0538
2023-05-01T00:18:19.310Z,956.0869
2023-05-01T00:19:21.155Z,956.1285
2023-05-01T00:20:22.981Z,956.1415
2023-05-01T00:21:24.828Z,956.1131
2023-05-01T00:22:26.672Z,956.0392
2023-05-01T00:23:28.506Z,956.0177
2023-05-01T00:24:30.333Z,956.0446
2023-05-01T00:25:32.197Z,956.0630
2023-05-01T00:26:34.027Z,956.0984
2023-05-01T00:27:35.856Z,956.0954
2023-05-01T00:28:37.714Z,956.0408
2023-05-01T00:29:39.526Z,956.0154
2023-05-01T00:30:41.383Z,956.0354
2023-05-01T00:31:43.305Z,956.0646
2023-05-01T00:32:45.091Z,956.0923
2023-05-01T00:33:46.886Z,956.0984
2023-05-01T00:34:48.753Z,956.0516
2023-05-01T00:35:50.572Z,955.9977
2023-05-01T00:36:52.417Z,956.0031
2023-05-01T00:37:54.246Z,956.0247
2023-05-01T00:38:56.117Z,956.0585
2023-05-01T00:39:58.276Z,956.0823
2023-05-01T00:40:59.792Z,956.0808
2023-05-01T00:42:01.603Z,956.0546
2023-05-01T00:43:03.436Z,956.0585
2023-05-01T00:44:05.286Z,956.0908
2023-05-01T00:45:07.118Z,956.1038
2023-05-01T00:46:09.061Z,956.1061
2023-05-01T00:47:10.804Z,956.0769
2023-05-01T00:48:12.652Z,955.9992
2023-05-01T00:49:14.491Z,955.9769
2023-05-01T00:50:16.337Z,955.9954
2023-05-01T00:51:18.168Z,956.0215
2023-05-01T00:52:19.997Z,956.0523
2023-05-01T00:53:21.852Z,956.0746
2023-05-01T00:54:23.674Z,956.0392
2023-05-01T00:55:25.519Z,956.0139
2023-05-01T00:56:27.343Z,956.0377
2023-05-01T00:57:29.192Z,956.0623
2023-05-01T00:58:31.028Z,956.0739
2023-05-01T00:59:32.868Z,956.0731
2023-05-01T01:00:34.702Z,956.0162
2023-05-01T01:01:36.616Z,955.9608
2023-05-01T01:02:38.383Z,955.9646
2023-05-01T01:03:40.197Z,955.9861
2023-05-01T01:04:42.090Z,956.0223
2023-05-01T01:05:43.889Z,956.0523
2023-05-01T01:06:45.756Z,956.0385
2023-05-01T01:07:47.554Z,955.9716
2023-05-01T01:08:49.402Z,955.9438
2023-05-01T01:09:51.253Z,955.9708
2023-05-01T01:10:53.066Z,955.9885
2023-05-01T01:11:54.922Z,956.0023
2023-05-01T01:12:56.738Z,955.9808
2023-05-01T01:13:58.600Z,955.9108
2023-05-01T01:15:00.432Z,955.8538
2023-05-01T01:16:02.283Z,955.8646
2023-05-01T01:17:04.190Z,955.8954
2023-05-01T01:18:06.048Z,955.9346
2023-05-01T01:19:07.777Z,955.9569
2023-05-01T01:20:09.632Z,955.9330
2023-05-01T01:21:11.461Z,955.8862
2023-05-01T01:22:13.308Z,955.8954
2023-05-01T01:23:15.130Z,955.9146
2023-05-01T01:24:17.007Z,955.9338
2023-05-01T01:25:18.809Z,955.9400
2023-05-01T01:26:20.662Z,955.9131
2023-05-01T01:27:22.487Z,955.8431
2023-05-01T01:28:24.336Z,955.8292
2023-05-01T01:29:26.263Z,955.8492
2023-05-01T01:30:28.026Z,955.8777
2023-05-01T01:31:29.885Z,955.9108
2023-05-01T01:32:31.732Z,955.9254
2023-05-01T01:33:33.532Z,955.8831
2023-05-01T01:34:35.429Z,955.8454
2023-05-01T01:35:37.213Z,955.8508
2023-05-01T01:36:39.047Z,955.8831
2023-05-01T01:37:40.887Z,955.9054
2023-05-01T01:38:42.721Z,955.9277
2023-05-01T01:39:44.565Z,955.9039
2023-05-01T01:40:46.388Z,955.8492
2023-05-01T01:41:48.243Z,955.8484
2023-05-01T01:42:50.076Z,955.8792
2023-05-01T01:43:51.922Z,955.9115
2023-05-01T01:44:53.850Z,955.9462
2023-05-01T01:45:55.627Z,955.9392
2023-05-01T01:46:57.430Z,955.8962
2023-05-01T01:47:59.332Z,955.8846
2023-05-01T01:49:01.121Z,955.9092
2023-05-01T01:50:02.958Z,955.9385
2023-05-01T01:51:04.794Z,955.9592
2023-05-01T01:52:06.652Z,955.9584
2023-05-01T01:53:08.471Z,955.9116
2023-05-01T01:54:10.324Z,955.8785
2023-05-01T01:55:12.165Z,955.9023
2023-05-01T01:56:14.007Z,955.9346
2023-05-01T01:57:15.825Z,955.9654
2023-05-01T01:58:17.681Z,955.9785
2023-05-01T01:59:19.518Z,955.9469
2023-05-01T02:00:21.360Z,955.8992
2023-05-01T02:01:23.227Z,955.8877
2023-05-01T02:02:25.035Z,955.9092
2023-05-01T02:03:27.001Z,955.9215
2023-05-01T02:04:28.718Z,955.9308
2023-05-01T02:05:30.527Z,955.9008
2023-05-01T02:06:32.393Z,955.8339
2023-05-01T02:07:34.202Z,955.8192
2023-05-01T02:08:36.043Z,955.8431
2023-05-01T02:09:37.865Z,955.8638
2023-05-01T02:10:39.724Z,955.8831
2023-05-01T02:11:41.536Z,955.8754
2023-05-01T02:12:43.393Z,955.8123
2023-05-01T02:13:45.239Z,955.7861
2023-05-01T02:14:47.082Z,955.8015
2023-05-01T02:15:48.975Z,955.8369
2023-05-01T02:16:50.749Z,955.8608
2023-05-01T02:17:52.722Z,955.8677
2023-05-01T02:18:54.430Z,955.8162
2023-05-01T02:19:56.453Z,955.7739
2023-05-01T02:20:58.099Z,955.7862
2023-05-01T02:21:59.954Z,955.8223
2023-05-01T02:23:01.773Z,955.8400
2023-05-01T02:24:03.614Z,955.8454
2023-05-01T02:25:05.459Z,955.8016
2023-05-01T02:26:07.323Z,955.7515
2023-05-01T02:27:09.130Z,955.7531
2023-05-01T02:28:10.982Z,955.7892
2023-05-01T02:29:12.807Z,955.8192
2023-05-01T02:30:14.663Z,955.8377
2023-05-01T02:31:16.540Z,955.8200
2023-05-01T02:32:18.345Z,955.7554
2023-05-01T02:33:20.160Z,955.7415
2023-05-01T02:34:22.033Z,955.7592
2023-05-01T02:35:23.855Z,955.7723
2023-05-01T02:36:25.696Z,955.7869
2023-05-01T02:37:27.547Z,955.7700
2023-05-01T02:38:29.366Z,955.6985
2023-05-01T02:39:31.232Z,955.6608
2023-05-01T02:40:33.040Z,955.6715
2023-05-01T02:41:34.896Z,955.7031
2023-05-01T02:42:36.733Z,955.7200
2023-05-01T02:43:38.583Z,955.7315
2023-05-01T02:44:40.410Z,955.6877
2023-05-01T02:45:42.295Z,955.6584
2023-05-01T02:46:44.120Z,955.6808
2023-05-01T02:47:45.968Z,955.6970
2023-05-01T02:48:47.772Z,955.7169
2023-05-01T02:49:49.603Z,955.7285
2023-05-01T02:50:51.465Z,955.6484
2023-05-01T02:51:53.294Z,955.5723
2023-05-01T02:52:55.114Z,955.5731
2023-05-01T02:53:56.972Z,955.5977
2023-05-01T02:54:58.781Z,955.6308
2023-05-01T02:56:00.686Z,955.6616
2023-05-01T02:57:02.464Z,955.6592
2023-05-01T02:58:04.340Z,955.6000
2023-05-01T02:59:06.144Z,955.5885
2023-05-01T03:00:07.986Z,955.6031
2023-05-01T03:01:09.827Z,955.6262
2023-05-01T03:02:11.661Z,955.6577
2023-05-01T03:03:13.527Z,955.6623
2023-05-01T03:04:15.399Z,955.6008
2023-05-01T03:05:17.157Z,955.5562
2023-05-01T03:06:19.020Z,955.5847
2023-05-01T03:07:20.838Z,955.6177
2023-05-01T03:08:22.655Z,955.6654
2023-05-01T03:09:24.533Z,955.6923
2023-05-01T03:10:26.328Z,955.6577
2023-05-01T03:11:28.190Z,955.5823
2023-05-01T03:12:30.007Z,955.5592
2023-05-01T03:13:31.854Z,955.5723
2023-05-01T03:14:33.702Z,955.5877
2023-05-01T03:15:35.539Z,955.6077
2023-05-01T03:16:37.388Z,955.6077
2023-05-01T03:17:39.279Z,955.5508
2023-05-01T03:18:41.060Z,955.5208
2023-05-01T03:19:42.883Z,955.5400
2023-05-01T03:20:44.729Z,955.5762
2023-05-01T03:21:46.559Z,955.6130
2023-05-01T03:22:48.408Z,955.6385
2023-05-01T03:23:50.238Z,955.6008
2023-05-01T03:24:52.065Z,955.5485
2023-05-01T03:25:53.917Z,955.5461
2023-05-01T03:26:55.774Z,955.5792
2023-05-01T03:27:57.599Z,955.6038
2023-05-01T03:28:59.424Z,955.6223
2023-05-01T03:30:01.293Z,955.5946
2023-05-01T03:31:03.097Z,955.5308
2023-05-01T03:32:04.969Z,955.5192
2023-05-01T03:33:06.867Z,955.5416
2023-05-01T03:34:08.693Z,955.5638
2023-05-01T03:35:10.556Z,955.5800
2023-05-01T03:36:12.366Z,955.5800
2023-05-01T03:37:14.191Z,955.5038
2023-05-01T03:38:16.032Z,955.4661
2023-05-01T03:39:17.883Z,955.4731
2023-05-01T03:40:19.718Z,955.5046
2023-05-01T03:41:21.556Z,955.5369
2023-05-01T03:42:23.388Z,955.5554
2023-05-01T03:43:25.235Z,955.5115
2023-05-01T03:44:27.055Z,955.4469
2023-05-01T03:45:28.912Z,955.4547
2023-05-01T03:46:30.809Z,955.4854
2023-05-01T03:47:32.669Z,955.5323
2023-05-01T03:48:34.432Z,955.5677
2023-05-01T03:49:36.278Z,955.5708
2023-05-01T03:50:38.100Z,955.5054
2023-05-01T03:51:39.970Z,955.4900
2023-05-01T03:52:41.796Z,955.5062
2023-05-01T03:53:43.609Z,955.5185
2023-05-01T03:54:45.462Z,955.5569
2023-05-01T03:55:47.288Z,955.5562
2023-05-01T03:56:49.128Z,955.4861
2023-05-01T03:57:50.981Z,955.4477
2023-05-01T03:58:52.810Z,955.4592
2023-05-01T03:59:55.131Z,955.4992
2023-05-01T04:00:56.473Z,955.5247
2023-05-01T04:01:58.341Z,955.5369
2023-05-01T04:03:00.284Z,955.4739
2023-05-01T04:04:02.183Z,955.4246
2023-05-01T04:05:03.848Z,955.4315
2023-05-01T04:06:05.733Z,955.4677
2023-05-01T04:07:07.521Z,955.5100
2023-05-01T04:08:09.343Z,955.5369
2023-05-01T04:09:11.192Z,955.5184
2023-05-01T04:10:13.013Z,955.4346
2023-05-01T04:11:14.881Z,955.4208
2023-05-01T04:12:16.694Z,955.4446
2023-05-01T04:13:18.555Z,955.4931
2023-05-01T04:14:20.379Z,955.5385
2023-05-01T04:15:22.223Z,955.5662
2023-05-01T04:16:24.134Z,955.4992
2023-05-01T04:17:25.920Z,955.4753
2023-05-01T04:18:27.730Z,955.4923
2023-05-01T04:19:29.582Z,955.5277
2023-05-01T04:20:31.398Z,955.5600
2023-05-01T04:21:33.252Z,955.5815
2023-05-01T04:22:35.074Z,955.5454
2023-05-01T04:23:36.920Z,955.4731
2023-05-01T04:24:38.766Z,955.4577
2023-05-01T04:25:40.594Z,955.4777
2023-05-01T04:26:42.448Z,955.5223
2023-05-01T04:27:44.293Z,955.5538
2023-05-01T04:28:46.118Z,955.5831
2023-05-01T04:29:47.949Z,955.5339
2023-05-01T04:30:49.804Z,955.5115
2023-05-01T04:31:51.672Z,955.5369
2023-05-01T04:32:53.545Z,955.5770
2023-05-01T04:33:55.300Z,955.6185
2023-05-01T04:34:57.831Z,955.6447
2023-05-01T04:35:58.988Z,955.6093
2023-05-01T04:37:00.829Z,955.5854
2023-05-01T04:38:02.675Z,955.6100
2023-05-01T04:39:04.505Z,955.6477
2023-05-01T04:40:06.348Z,955.6700
2023-05-01T04:41:08.166Z,955.7023
2023-05-01T04:42:10.017Z,955.6600
2023-05-01T04:43:11.874Z,955.6108
2023-05-01T04:44:13.686Z,955.6192
2023-05-01T04:45:15.551Z,955.6492
2023-05-01T04:46:17.404Z,955.6800
2023-05-01T04:47:19.216Z,955.7154
2023-05-01T04:48:21.128Z,955.7069
2023-05-01T04:49:22.910Z,955.6738
2023-05-01T04:50:24.721Z,955.6785
2023-05-01T04:51:26.585Z,955.7039
2023-05-01T04:52:28.411Z,955.7377
2023-05-01T04:53:30.247Z,955.7708
2023-05-01T04:54:32.222Z,955.7670
2023-05-01T04:55:33.930Z,955.6969
2023-05-01T04:56:35.810Z,955.6638
2023-05-01T04:57:37.626Z,955.6715
2023-05-01T04:58:39.467Z,955.7146
2023-05-01T04:59:41.304Z,955.7423
2023-05-01T05:00:43.134Z,955.7762
2023-05-01T05:01:45.066Z,955.7562
2023-05-01T05:02:46.882Z,955.7146
2023-05-01T05:03:50.065Z,955.7223
2023-05-01T05:04:50.489Z,955.7631
2023-05-01T05:05:52.342Z,955.7946
2023-05-01T05:06:54.201Z,955.8262
2023-05-01T05:07:56.014Z,955.8192
2023-05-01T05:08:57.843Z,955.7570
2023-05-01T05:09:59.686Z,955.7415
2023-05-01T05:11:01.509Z,955.7739
2023-05-01T05:12:03.344Z,955.8069
2023-05-01T05:13:05.212Z,955.8500
2023-05-01T05:14:07.026Z,955.8669
2023-05-01T05:15:08.871Z,955.8262
2023-05-01T05:16:10.714Z,955.7846
2023-05-01T05:17:12.537Z,955.8015
2023-05-01T05:18:14.423Z,955.8346
2023-05-01T05:19:16.234Z,955.8692
2023-05-01T05:20:18.046Z,955.8985
2023-05-01T05:21:19.905Z,955.8723
2023-05-01T05:22:21.721Z,955.8215
2023-05-01T05:23:23.588Z,955.8277
2023-05-01T05:24:25.400Z,955.8615
2023-05-01T05:25:27.272Z,955.8977
2023-05-01T05:26:29.071Z,955.9223
2023-05-01T05:27:30.925Z,955.9084
2023-05-01T05:28:32.762Z,955.8431
2023-05-01T05:29:34.596Z,955.8200
2023-05-01T05:30:36.426Z,955.8377
2023-05-01T05:31:38.341Z,955.8685
2023-05-01T05:32:40.114Z,955.8908
2023-05-01T05:33:41.923Z,955.8939
2023-05-01T05:34:43.779Z,955.8492
2023-05-01T05:35:45.598Z,955.8162
2023-05-01T05:36:47.456Z,955.8377
2023-05-01T05:37:49.287Z,955.8908
2023-05-01T05:38:51.127Z,955.9246
2023-05-01T05:39:53.071Z,955.9470
2023-05-01T05:40:54.802Z,955.9154
2023-05-01T05:41:56.646Z,955.8615
2023-05-01T05:42:58.466Z,955.8592
2023-05-01T05:44:00.343Z,955.8946
2023-05-01T05:45:02.159Z,955.9415
2023-05-01T05:46:04.082Z,955.9792
2023-05-01T05:47:05.820Z,955.9846
2023-05-01T05:48:07.750Z,955.9308
2023-05-01T05:49:09.511Z,955.9161
2023-05-01T05:50:11.346Z,955.9469
2023-05-01T05:51:13.187Z,955.9823
2023-05-01T05:52:15.014Z,956.0123
2023-05-01T05:53:16.867Z,956.0170
2023-05-01T05:54:18.690Z,955.9716
2023-05-01T05:55:20.538Z,955.9269
2023-05-01T05:56:22.368Z,955.9377
2023-05-01T05:57:24.219Z,955.9792
2023-05-01T05:58:26.036Z,956.0038
2023-05-01T05:59:27.885Z,956.0208
2023-05-01T06:00:29.765Z,955.9923
2023-05-01T06:01:31.552Z,955.9323
2023-05-01T06:02:33.484Z,955.9346
2023-05-01T06:03:35.359Z,955.9600
2023-05-01T06:04:37.071Z,955.9861
2023-05-01T06:05:38.894Z,956.0185
2023-05-01T06:06:40.750Z,956.0115
2023-05-01T06:07:42.574Z,955.9554
2023-05-01T06:08:44.463Z,955.9315
2023-05-01T06:09:46.254Z,955.9562
2023-05-01T06:10:48.078Z,955.9846
2023-05-01T06:11:49.925Z,956.0131
2023-05-01T06:12:59.030Z,956.0085
2023-05-01T06:13:54.597Z,955.9562
2023-05-01T06:14:55.439Z,955.9200
2023-05-01T06:15:57.274Z,955.9277
2023-05-01T06:16:59.120Z,955.9592
2023-05-01T06:18:00.950Z,955.9830
2023-05-01T06:19:02.782Z,955.9861
2023-05-01T06:20:04.612Z,955.9415
2023-05-01T06:21:06.456Z,955.8738
2023-05-01T06:22:08.268Z,955.8692
2023-05-01T06:23:10.124Z,955.9008
2023-05-01T06:24:11.964Z,955.9338
2023-05-01T06:25:13.789Z,955.9562
2023-05-01T06:26:15.639Z,955.9507
2023-05-01T06:27:17.469Z,955.8954
2023-05-01T06:28:19.322Z,955.8792
2023-05-01T06:29:21.141Z,955.9077
2023-05-01T06:30:23.005Z,955.9415
2023-05-01T06:31:24.889Z,955.9661
2023-05-01T06:32:26.682Z,955.9623
2023-05-01T06:33:28.509Z,955.9177
2023-05-01T06:34:30.323Z,955.8770
2023-05-01T06:35:32.161Z,955.8900
2023-05-01T06:36:34.006Z,955.9169
2023-05-01T06:37:35.825Z,955.9477
2023-05-01T06:38:37.777Z,955.9577
2023-05-01T06:39:39.499Z,955.9215
2023-05-01T06:40:41.348Z,955.8685
2023-05-01T06:41:43.169Z,955.8800
2023-05-01T06:42:45.017Z,955.9223
2023-05-01T06:43:46.858Z,955.9523
2023-05-01T06:44:48.712Z,955.9830
2023-05-01T06:45:50.547Z,955.9623
2023-05-01T06:46:52.419Z,955.9092
2023-05-01T06:47:54.231Z,955.8947
2023-05-01T06:48:56.021Z,955.9292
2023-05-01T06:49:58.085Z,955.9577
2023-05-01T06:50:59.683Z,955.9869
2023-05-01T06:52:01.539Z,955.9869
2023-05-01T06:53:03.349Z,955.9354
2023-05-01T06:54:05.199Z,955.9069
2023-05-01T06:55:07.020Z,955.9330
2023-05-01T06:56:08.867Z,955.9738
2023-05-01T06:57:10.695Z,956.0008
2023-05-01T06:58:23.524Z,956.0231
2023-05-01T06:59:15.962Z,955.9931
2023-05-01T07:00:16.520Z,955.9385
2023-05-01T07:01:18.129Z,955.9438
2023-05-01T07:02:19.984Z,955.9838
2023-05-01T07:03:21.763Z,956.0323
2023-05-01T07:04:23.538Z,956.0715
2023-05-01T07:05:25.353Z,956.0723
2023-05-01T07:06:27.234Z,956.0331
2023-05-01T07:07:29.031Z,956.0154
2023-05-01T07:08:30.863Z,956.0423
2023-05-01T07:09:32.711Z,956.0831
2023-05-01T07:10:34.527Z,956.1123
2023-05-01T07:11:36.353Z,956.1230
2023-05-01T07:12:38.213Z,956.0862
2023-05-01T07:13:40.025Z,956.0254
2023-05-01T07:14:41.866Z,956.0262
2023-05-01T07:15:43.692Z,956.0646
2023-05-01T07:16:45.605Z,956.1054
2023-05-01T07:17:47.397Z,956.1392
2023-05-01T07:18:49.191Z,956.1385
2023-05-01T07:19:51.036Z,956.0916
2023-05-01T07:20:52.901Z,956.0662
2023-05-01T07:21:54.712Z,956.0839
2023-05-01T07:22:56.555Z,956.1146
2023-05-01T07:23:58.355Z,956.1362
2023-05-01T07:25:00.205Z,956.1377
2023-05-01T07:26:02.021Z,956.0931
2023-05-01T07:27:03.858Z,956.0654
2023-05-01T07:28:05.682Z,956.0785
2023-05-01T07:29:07.559Z,956.1161
2023-05-01T07:30:09.363Z,956.1439
2023-05-01T07:31:11.216Z,956.1623
2023-05-01T07:32:13.157Z,956.1208
2023-05-01T07:33:14.986Z,956.0670
2023-05-01T07:34:16.688Z,956.0646
2023-05-01T07:35:18.562Z,956.0892
2023-05-01T07:36:20.468Z,956.1185
2023-05-01T07:37:22.274Z,956.1462
2023-05-01T07:38:24.090Z,956.1308
2023-05-01T07:39:25.916Z,956.0769
2023-05-01T07:40:27.766Z,956.0700
2023-05-01T07:41:29.594Z,956.0946
2023-05-01T07:42:31.438Z,956.1331
2023-05-01T07:43:33.255Z,956.1600
2023-05-01T07:44:35.104Z,956.1700
2023-05-01T07:45:36.928Z,956.1177
2023-05-01T07:46:38.830Z,956.0931
2023-05-01T07:47:40.632Z,956.1115
2023-05-01T07:48:42.438Z,956.1423
2023-05-01T07:49:44.275Z,956.1723
2023-05-01T07:50:46.087Z,956.1923
2023-05-01T07:51:47.935Z,956.1623
2023-05-01T07:52:49.752Z,956.1146
2023-05-01T07:53:51.620Z,956.1238
2023-05-01T07:54:53.420Z,956.1669
2023-05-01T07:55:55.269Z,956.1977
2023-05-01T07:56:57.092Z,956.2285
2023-05-01T07:57:58.938Z,956.2184
2023-05-01T07:59:00.765Z,956.1985
2023-05-01T08:00:02.645Z,956.2131
2023-05-01T08:01:04.444Z,956.2369
2023-05-01T08:02:06.353Z,956.2677
2023-05-01T08:03:08.297Z,956.2900
2023-05-01T08:04:10.039Z,956.2654
2023-05-01T08:05:11.780Z,956.2007
2023-05-01T08:06:13.646Z,956.1954
2023-05-01T08:07:15.461Z,956.2308
2023-05-01T08:08:17.278Z,956.2654
2023-05-01T08:09:19.132Z,956.3015
2023-05-01T08:10:20.949Z,956.3146
2023-05-01T08:11:22.819Z,956.2777
2023-05-01T08:12:24.650Z,956.2454
2023-05-01T08:13:26.475Z,956.2623
2023-05-01T08:14:28.302Z,956.2985
2023-05-01T08:15:30.127Z,956.3377
2023-05-01T08:16:31.990Z,956.3569
2023-05-01T08:17:33.837Z,956.3392
2023-05-01T08:18:35.679Z,956.2985
2023-05-01T08:19:37.466Z,956.3138
2023-05-01T08:20:39.307Z,956.3484
2023-05-01T08:21:41.144Z,956.3677
2023-05-01T08:22:42.961Z,956.3831
2023-05-01T08:23:44.811Z,956.3669
2023-05-01T08:24:46.615Z,956.3023
2023-05-01T08:25:48.468Z,956.3062
2023-05-01T08:26:50.313Z,956.3223
2023-05-01T08:27:52.173Z,956.3608
2023-05-01T08:28:53.959Z,956.3808
2023-05-01T08:29:56.099Z,956.3900
2023-05-01T08:30:57.627Z,956.3423
2023-05-01T08:31:59.571Z,956.3115
2023-05-01T08:33:01.355Z,956.3223
2023-05-01T08:34:03.135Z,956.3700
2023-05-01T08:35:04.983Z,956.3915
2023-05-01T08:36:06.804Z,956.4146
2023-05-01T08:37:08.617Z,956.3931
2023-05-01T08:38:10.464Z,956.3484
2023-05-01T08:39:12.282Z,956.3484
2023-05-01T08:40:14.135Z,956.3785
2023-05-01T08:41:15.980Z,956.3984
2023-05-01T08:42:17.791Z,956.4246
2023-05-01T08:43:19.638Z,956.4023
2023-05-01T08:44:21.455Z,956.3416
2023-05-01T08:45:23.309Z,956.3362
2023-05-01T08:46:25.185Z,956.3569
2023-05-01T08:47:27.072Z,956.4008
2023-05-01T08:48:28.792Z,956.4315
2023-05-01T08:49:30.640Z,956.4408
2023-05-01T08:50:32.462Z,956.3992
2023-05-01T08:51:34.310Z,956.3730
2023-05-01T08:52:36.153Z,956.4077
2023-05-01T08:53:37.974Z,956.4377
2023-05-01T08:54:39.812Z,956.4700
2023-05-01T08:55:41.632Z,956.4700
2023-05-01T08:56:43.482Z,956.4362
2023-05-01T08:57:45.303Z,956.4031
2023-05-01T08:58:47.150Z,956.4153
2023-05-01T08:59:48.978Z,956.4330
2023-05-01T09:00:50.814Z,956.4677
2023-05-01T09:01:52.741Z,956.4885
2023-05-01T09:02:54.514Z,956.4692
2023-05-01T09:03:56.351Z,956.4208
2023-05-01T09:04:58.145Z,956.4423
2023-05-01T09:06:00.035Z,956.4554
2023-05-01T09:07:01.815Z,956.4877
2023-05-01T09:08:03.669Z,956.5215
2023-05-01T09:09:05.495Z,956.5185
2023-05-01T09:10:07.342Z,956.4792
2023-05-01T09:11:09.165Z,956.4746
2023-05-01T09:12:11.032Z,956.4654
2023-05-01T09:13:12.842Z,956.4908
2023-05-01T09:14:14.701Z,956.5215
2023-05-01T09:15:16.529Z,956.5246
2023-05-01T09:16:18.398Z,956.4785
2023-05-01T09:17:20.211Z,956.4600
2023-05-01T09:18:22.030Z,956.4769
2023-05-01T09:19:23.866Z,956.5046
2023-05-01T09:20:25.689Z,956.5339
2023-05-01T09:21:27.532Z,956.5677
2023-05-01T09:22:29.360Z,956.5500
2023-05-01T09:23:31.219Z,956.5115
2023-05-01T09:24:33.062Z,956.5100
2023-05-01T09:25:34.871Z,956.5377
2023-05-01T09:26:36.720Z,956.5508
2023-05-01T09:27:38.562Z,956.5692
2023-05-01T09:28:40.382Z,956.5700
2023-05-01T09:29:42.226Z,956.5431
2023-05-01T09:30:44.052Z,956.5300
2023-05-01T09:31:45.873Z,956.5600
2023-05-01T09:32:47.729Z,956.5777
2023-05-01T09:33:49.534Z,956.6031
2023-05-01T09:34:51.385Z,956.6230
2023-05-01T09:35:53.244Z,956.5946
2023-05-01T09:36:55.049Z,956.5654
2023-05-01T09:37:56.861Z,956.5823
2023-05-01T09:38:58.706Z,956.6046
2023-05-01T09:40:00.524Z,956.6146
2023-05-01T09:41:02.372Z,956.6492
2023-05-01T09:42:04.182Z,956.6354
2023-05-01T09:43:06.038Z,956.6085
2023-05-01T09:44:07.852Z,956.6016
2023-05-01T09:45:09.691Z,956.6238
2023-05-01T09:46:11.642Z,956.6354
2023-05-01T09:47:13.373Z,956.6623
2023-05-01T09:48:15.176Z,956.6531
2023-05-01T09:49:17.030Z,956.6169
2023-05-01T09:50:18.949Z,956.5923
2023-05-01T09:51:20.672Z,956.6061
2023-05-01T09:52:22.530Z,956.6492
2023-05-01T09:53:24.344Z,956.6469
2023-05-01T09:54:26.175Z,956.6539
2023-05-01T09:55:28.016Z,956.6246
2023-05-01T09:56:29.875Z,956.5946
2023-05-01T09:57:31.675Z,956.6069
2023-05-01T09:58:33.525Z,956.6100
2023-05-01T09:59:35.364Z,956.6208
2023-05-01T10:00:37.187Z,956.6254
2023-05-01T10:01:39.061Z,956.5931
2023-05-01T10:02:40.903Z,956.5569
2023-05-01T10:03:42.923Z,956.5530
2023-05-01T10:04:44.537Z,956.5954
2023-05-01T10:05:46.332Z,956.6038
2023-05-01T10:06:48.210Z,956.6323
2023-05-01T10:07:50.015Z,956.6230
2023-05-01T10:08:51.843Z,956.5769
2023-05-01T10:09:53.698Z,956.5577
2023-05-01T10:10:55.503Z,956.5762
2023-05-01T10:11:57.559Z,956.6123
2023-05-01T10:12:59.172Z,956.6077
2023-05-01T10:14:01.011Z,956.6200
2023-05-01T10:15:13.775Z,956.5923
2023-05-01T10:16:05.660Z,956.5638
2023-05-01T10:17:06.571Z,956.5815
2023-05-01T10:18:08.365Z,956.6092
2023-05-01T10:19:10.150Z,956.6046
2023-05-01T10:20:11.999Z,956.6215
2023-05-01T10:21:13.827Z,956.5823
2023-05-01T10:22:15.652Z,956.5469
2023-05-01T10:23:17.494Z,956.5562
2023-05-01T10:24:19.333Z,956.5900
2023-05-01T10:25:21.155Z,956.6023
2023-05-01T10:26:23.015Z,956.6292
2023-05-01T10:27:24.817Z,956.6315
2023-05-01T10:28:26.657Z,956.5908
2023-05-01T10:29:28.506Z,956.5815
2023-05-01T10:30:30.334Z,956.6208
2023-05-01T10:31:32.236Z,956.6246
2023-05-01T10:32:34.092Z,956.6400
2023-05-01T10:33:35.844Z,956.6315
2023-05-01T10:34:37.689Z,956.5815
2023-05-01T10:35:39.516Z,956.5415
2023-05-01T10:36:41.405Z,956.5554
2023-05-01T10:37:43.178Z,956.5731
2023-05-01T10:38:45.034Z,956.5646
2023-05-01T10:39:46.843Z,956.5854
2023-05-01T10:40:48.728Z,956.5562
2023-05-01T10:41:50.512Z,956.5677
2023-05-01T10:42:52.362Z,956.5823
2023-05-01T10:43:54.181Z,956.5854
2023-05-01T10:44:56.238Z,956.6077
2023-05-01T10:45:57.989Z,956.6146
2023-05-01T10:46:59.720Z,956.5762
2023-05-01T10:48:01.570Z,956.5308
2023-05-01T10:49:03.361Z,956.5192
2023-05-01T10:50:05.223Z,956.5323
2023-05-01T10:51:07.015Z,956.5485
2023-05-01T10:52:08.859Z,956.5715
2023-05-01T10:53:10.689Z,956.5631
2023-05-01T10:54:12.537Z,956.5123
2023-05-01T10:55:14.343Z,956.4885
2023-05-01T10:56:16.194Z,956.4930
2023-05-01T10:57:18.022Z,956.4900
2023-05-01T10:58:19.837Z,956.5146
2023-05-01T10:59:21.722Z,956.5162
2023-05-01T11:00:23.512Z,956.4769
2023-05-01T11:01:25.393Z,956.4269
2023-05-01T11:02:27.300Z,956.4354
2023-05-01T11:03:29.041Z,956.4431
2023-05-01T11:04:30.853Z,956.4684
2023-05-01T11:05:38.593Z,956.4892
2023-05-01T11:06:36.180Z,956.4731
2023-05-01T11:07:36.681Z,956.4285
2023-05-01T11:08:38.238Z,956.4230
2023-05-01T11:09:40.086Z,956.4400
2023-05-01T11:10:41.866Z,956.4585
2023-05-01T11:11:43.714Z,956.4900
2023-05-01T11:12:45.567Z,956.5070
2023-05-01T11:13:47.373Z,956.4600
2023-05-01T11:14:49.217Z,956.4446
2023-05-01T11:15:51.092Z,956.4646
2023-05-01T11:16:52.922Z,956.4846
2023-05-01T11:17:54.742Z,956.5077
2023-05-01T11:18:56.557Z,956.5146
2023-05-01T11:19:58.414Z,956.4677
2023-05-01T11:21:00.233Z,956.4323
2023-05-01T11:22:02.064Z,956.4462
2023-05-01T11:23:03.907Z,956.4577
2023-05-01T11:24:05.720Z,956.4923
2023-05-01T11:25:07.554Z,956.5123
2023-05-01T11:26:09.418Z,956.4846
2023-05-01T11:27:11.225Z,956.4330
2023-05-01T11:28:13.080Z,956.4254
2023-05-01T11:29:14.897Z,956.4238
2023-05-01T11:30:16.795Z,956.4507
2023-05-01T11:31:18.610Z,956.4584
2023-05-01T11:32:20.624Z,956.4431
2023-05-01T11:33:22.277Z,956.3692
2023-05-01T11:34:24.103Z,956.3246
2023-05-01T11:35:25.914Z,956.3347
2023-05-01T11:36:27.769Z,956.3770
2023-05-01T11:37:29.598Z,956.4223
2023-05-01T11:38:31.434Z,956.4385
2023-05-01T11:39:33.258Z,956.3939
2023-05-01T11:40:35.298Z,956.3615
2023-05-01T11:41:37.007Z,956.3923
2023-05-01T11:42:38.914Z,956.4246
2023-05-01T11:43:40.679Z,956.4446
2023-05-01T11:44:42.543Z,956.4454
2023-05-01T11:45:44.400Z,956.4031
2023-05-01T11:46:46.212Z,956.3423
2023-05-01T11:47:48.094Z,956.3577
2023-05-01T11:48:49.873Z,956.3808
2023-05-01T11:49:51.700Z,956.3954
2023-05-01T11:50:53.552Z,956.4300
2023-05-01T11:51:55.386Z,956.4500
2023-05-01T11:52:57.233Z,956.4108
2023-05-01T11:53:59.046Z,956.4146
2023-05-01T11:55:01.140Z,956.4346
2023-05-01T11:56:03.388Z,956.4600
2023-05-01T11:57:04.579Z,956.4854
2023-05-01T11:58:06.402Z,956.4677
2023-05-01T11:59:08.257Z,956.4246
2023-05-01T12:00:10.241Z,956.4000
2023-05-01T12:01:11.933Z,956.4131
2023-05-01T12:02:13.803Z,956.4354
2023-05-01T12:03:15.890Z,956.4600
2023-05-01T12:04:17.526Z,956.4854
2023-05-01T12:05:19.273Z,956.4700
2023-05-01T12:06:21.111Z,956.4039